Time;durP1;ratioP1;P1;durP2;ratioP2;P2;SDS_P1;SDS_P2;PMS_P1;PMS_P2;Temp;Humidity;BMP_temperature;BMP_pressure;BME280_temperature;BME280_humidity;BME280_pressure;Samples;Min_cycle;Max_cycle;Signal;HPM_P1;HPM_P2
2021/10/02 00:34:44;;;;;;;8.32;1.65;;;9.00;83.10;;;;;;5015064;28;20084;-65
2021/10/02 00:45:27;;;;;;;6.07;1.52;;;8.80;83.90;;;;;;5027720;28;20136;-63
2021/10/02 00:47:55;;;;;;;8.40;2.92;;;8.80;83.70;;;;;;5026279;28;20493;-62
2021/10/02 00:50:22;;;;;;;8.10;1.38;;;8.70;83.40;;;;;;5025857;28;20338;-63
2021/10/02 00:52:49;;;;;;;8.10;1.50;;;8.60;84.00;;;;;;5025302;28;20124;-63
2021/10/02 00:55:16;;;;;;;8.20;1.48;;;8.60;83.80;;;;;;5025898;28;20505;-64
2021/10/02 00:57:43;;;;;;;3.22;1.60;;;8.50;84.20;;;;;;5025633;28;20086;-63
2021/10/02 01:00:10;;;;;;;5.88;1.40;;;8.50;84.30;;;;;;5006396;28;20101;-64
2021/10/02 01:02:37;;;;;;;4.68;1.50;;;8.50;84.40;;;;;;5020648;28;20175;-63
2021/10/02 01:05:30;;;;;;;8.48;1.27;;;8.60;84.30;;;;;;5027034;28;20049;-64
2021/10/02 01:08:05;;;;;;;8.23;1.80;;;8.60;86.50;;;;;;5026717;28;20111;-63
2021/10/02 01:10:58;;;;;;;13.50;1.30;;;8.60;84.60;;;;;;5027106;28;20500;-64
2021/10/02 01:13:49;;;;;;;11.48;1.88;;;8.60;84.50;;;;;;5010653;28;20529;-64
2021/10/02 01:16:29;;;;;;;11.30;1.40;;;8.50;86.50;;;;;;5027196;28;20049;-64
2021/10/02 01:19:04;;;;;;;8.13;1.58;;;8.50;85.70;;;;;;5025523;28;20050;-63
2021/10/02 01:21:49;;;;;;;4.82;1.38;;;8.50;85.20;;;;;;5026706;28;20497;-62
2021/10/02 01:24:27;;;;;;;5.03;1.45;;;8.40;85.30;;;;;;5024537;28;20116;-63
2021/10/02 01:27:32;;;;;;;9.48;1.35;;;8.50;85.50;;;;;;5009777;28;20096;-63
2021/10/02 01:30:04;;;;;;;5.93;1.27;;;8.50;86.60;;;;;;5022069;28;20042;-63
2021/10/02 01:32:35;;;;;;;3.58;1.13;;;8.50;85.20;;;;;;5025630;28;20108;-63
2021/10/02 01:35:09;;;;;;;6.65;2.08;;;8.60;85.40;;;;;;5025246;28;20045;-64
2021/10/02 01:47:08;;;;;;;7.28;1.60;;;8.60;85.60;;;;;;5010107;28;20061;-64
2021/10/02 01:48:55;;;;;;;7.88;2.75;;;8.70;85.60;;;;;;5024910;28;20072;-63
2021/10/02 01:51:22;;;;;;;9.05;1.55;;;8.80;86.10;;;;;;5027110;28;20069;-63
2021/10/02 01:53:48;;;;;;;6.85;1.45;;;8.80;85.50;;;;;;5028976;28;20120;-63
2021/10/02 01:56:17;;;;;;;7.40;1.20;;;8.90;85.60;;;;;;5028741;28;20099;-63
2021/10/02 01:58:44;;;;;;;5.78;1.60;;;8.90;85.60;;;;;;5028834;28;20041;-63
2021/10/02 02:01:11;;;;;;;10.48;1.80;;;8.90;85.60;;;;;;5028742;28;20083;-63
2021/10/02 02:03:39;;;;;;;12.63;3.03;;;8.90;85.50;;;;;;5014996;28;20041;-62
2021/10/02 02:06:05;;;;;;;4.50;1.20;;;8.90;85.40;;;;;;5028391;28;20128;-62
2021/10/02 02:08:32;;;;;;;11.18;1.42;;;8.90;85.40;;;;;;5028823;28;20109;-62
2021/10/02 02:11:19;;;;;;;6.40;1.92;;;8.90;85.60;;;;;;5023808;28;20049;-63
2021/10/02 02:13:46;;;;;;;9.68;1.30;;;8.90;85.70;;;;;;5028388;28;20057;-63
2021/10/02 02:16:12;;;;;;;8.70;1.80;;;8.90;86.10;;;;;;5028340;28;20092;-63
2021/10/02 02:18:39;;;;;;;9.13;2.03;;;8.90;86.00;;;;;;5028513;28;20381;-63
2021/10/02 02:21:11;;;;;;;8.90;1.65;;;9.00;86.20;;;;;;5028355;28;20111;-63
2021/10/02 02:23:38;;;;;;;5.13;1.63;;;9.00;86.10;;;;;;5028376;28;20135;-63
2021/10/02 02:26:06;;;;;;;5.65;1.52;;;9.00;86.00;;;;;;5011637;28;20080;-63
2021/10/02 02:28:35;;;;;;;4.25;1.15;;;9.00;85.80;;;;;;5029555;28;20122;-63
2021/10/02 02:31:03;;;;;;;8.32;1.65;;;9.00;85.60;;;;;;5029243;28;20053;-63
2021/10/02 02:33:30;;;;;;;7.15;2.05;;;9.00;85.90;;;;;;5012045;28;20089;-63
2021/10/02 02:35:57;;;;;;;5.00;1.35;;;9.00;86.10;;;;;;5028933;28;20128;-63
2021/10/02 02:38:24;;;;;;;11.55;1.85;;;9.00;86.20;;;;;;5029390;28;20050;-62
2021/10/02 02:40:51;;;;;;;6.88;1.20;;;9.00;86.30;;;;;;5029292;28;20096;-63
2021/10/02 02:43:18;;;;;;;4.65;1.35;;;9.00;86.40;;;;;;5029146;28;20136;-64
2021/10/02 02:45:57;;;;;;;8.63;2.38;;;9.00;86.40;;;;;;5027327;28;20546;-65
2021/10/02 02:48:34;;;;;;;8.95;1.50;;;9.00;86.50;;;;;;5029202;28;20091;-64
2021/10/02 02:51:09;;;;;;;6.97;1.20;;;9.00;86.90;;;;;;5028955;28;20122;-64
2021/10/02 02:53:48;;;;;;;8.07;1.80;;;9.00;86.70;;;;;;5024574;28;20049;-63
2021/10/02 02:56:22;;;;;;;6.65;1.00;;;9.10;86.50;;;;;;5028170;28;20053;-65
2021/10/02 02:58:53;;;;;;;6.40;1.17;;;9.10;86.00;;;;;;5024699;28;20179;-62
2021/10/02 03:01:20;;;;;;;7.15;1.20;;;9.10;85.30;;;;;;5022754;28;20049;-63
2021/10/02 03:03:49;;;;;;;13.77;1.40;;;9.20;85.20;;;;;;5010514;28;20055;-64
2021/10/02 03:06:17;;;;;;;7.97;1.42;;;9.20;84.80;;;;;;5004537;28;20046;-63
2021/10/02 03:08:46;;;;;;;4.78;1.42;;;9.30;84.80;;;;;;5028441;28;20174;-63
2021/10/02 03:11:13;;;;;;;6.80;1.88;;;9.30;85.10;;;;;;5026945;28;20076;-63
2021/10/02 03:13:40;;;;;;;10.23;1.45;;;9.30;85.00;;;;;;5026916;28;20076;-63
2021/10/02 03:16:11;;;;;;;9.07;1.58;;;9.30;85.20;;;;;;5026963;28;20072;-64
2021/10/02 03:18:47;;;;;;;7.13;1.90;;;9.30;85.50;;;;;;5027049;28;20218;-64
2021/10/02 03:21:14;;;;;;;8.52;1.38;;;9.20;85.90;;;;;;4997320;28;20088;-63
2021/10/02 03:23:43;;;;;;;17.42;4.40;;;9.20;85.70;;;;;;5027051;28;20073;-63
2021/10/02 03:26:10;;;;;;;8.43;1.80;;;9.20;85.60;;;;;;5027781;28;20132;-63
2021/10/02 03:28:37;;;;;;;6.00;1.42;;;9.20;85.50;;;;;;5026857;28;20053;-63
2021/10/02 03:31:04;;;;;;;14.57;2.72;;;9.20;85.60;;;;;;5027872;28;20052;-62
2021/10/02 03:33:31;;;;;;;7.82;2.00;;;9.20;85.70;;;;;;5026680;28;20057;-62
2021/10/02 03:35:58;;;;;;;11.52;2.22;;;9.20;85.80;;;;;;5020974;28;20108;-63
2021/10/02 03:38:25;;;;;;;6.70;2.17;;;9.20;85.70;;;;;;5026599;28;20080;-63
2021/10/02 03:40:57;;;;;;;9.50;2.80;;;9.20;85.50;;;;;;5009871;28;20045;-63
2021/10/02 03:43:29;;;;;;;10.23;2.35;;;9.20;86.10;;;;;;5024926;28;20088;-63
2021/10/02 03:45:56;;;;;;;13.75;3.80;;;9.20;85.90;;;;;;5026140;28;20110;-62
2021/10/02 03:48:23;;;;;;;16.95;3.25;;;9.20;86.00;;;;;;5026814;28;20109;-62
2021/10/02 03:50:50;;;;;;;12.88;3.40;;;9.10;85.90;;;;;;5027741;28;20057;-63
2021/10/02 03:53:17;;;;;;;13.13;3.35;;;9.10;86.10;;;;;;5027182;28;20168;-63
2021/10/02 03:55:43;;;;;;;19.92;4.82;;;9.10;85.90;;;;;;5027594;28;20140;-63
2021/10/02 03:58:10;;;;;;;16.25;3.90;;;9.10;86.10;;;;;;5032868;28;20065;-63
2021/10/02 04:00:37;;;;;;;19.90;4.38;;;9.10;86.30;;;;;;5022864;28;20045;-63
2021/10/02 04:03:04;;;;;;;11.25;3.72;;;9.10;86.20;;;;;;5017749;28;20170;-63
2021/10/02 04:05:31;;;;;;;15.05;4.35;;;9.10;86.20;;;;;;5025692;28;20528;-63
2021/10/02 04:07:58;;;;;;;13.13;4.90;;;9.10;86.10;;;;;;5027383;28;20050;-63
2021/10/02 04:10:25;;;;;;;13.52;3.90;;;9.10;85.90;;;;;;5027356;28;20045;-63
2021/10/02 04:12:51;;;;;;;18.90;3.72;;;9.20;86.00;;;;;;5027273;28;20147;-64
2021/10/02 04:15:18;;;;;;;12.70;3.42;;;9.20;86.20;;;;;;5026416;28;20053;-63
2021/10/02 04:17:45;;;;;;;17.90;4.30;;;9.20;86.10;;;;;;5026967;28;20080;-63
2021/10/02 04:20:12;;;;;;;13.77;3.00;;;9.20;86.20;;;;;;5027144;28;20566;-62
2021/10/02 04:22:39;;;;;;;16.52;3.00;;;9.20;86.30;;;;;;5027436;28;20546;-62
2021/10/02 04:25:06;;;;;;;10.85;2.67;;;9.20;86.30;;;;;;5027008;28;20492;-62
2021/10/02 04:27:33;;;;;;;10.60;2.78;;;9.20;86.20;;;;;;5026363;28;20060;-63
2021/10/02 04:29:59;;;;;;;12.25;2.25;;;9.20;86.20;;;;;;5026854;28;20069;-63
2021/10/02 04:32:26;;;;;;;9.98;2.60;;;9.20;85.90;;;;;;5027146;28;20217;-63
2021/10/02 04:34:53;;;;;;;13.95;2.63;;;9.20;86.20;;;;;;5026747;28;20076;-62
2021/10/02 04:37:20;;;;;;;16.90;2.78;;;9.20;86.40;;;;;;5025876;28;20046;-63
2021/10/02 04:39:46;;;;;;;10.90;2.25;;;9.30;86.30;;;;;;5026706;28;20080;-62
2021/10/02 04:42:13;;;;;;;9.25;2.13;;;9.30;86.10;;;;;;5026782;28;20128;-63
2021/10/02 04:44:40;;;;;;;18.25;2.83;;;9.30;86.20;;;;;;5026637;28;20088;-62
2021/10/02 04:47:07;;;;;;;11.82;2.67;;;9.30;86.20;;;;;;5026856;28;20052;-62
2021/10/02 04:49:33;;;;;;;14.93;2.40;;;9.30;86.20;;;;;;5027161;28;20072;-63
2021/10/02 04:52:00;;;;;;;9.15;2.35;;;9.30;86.30;;;;;;5026981;28;20088;-63
2021/10/02 04:54:27;;;;;;;6.82;1.92;;;9.30;86.40;;;;;;5026767;28;20136;-63
2021/10/02 04:56:54;;;;;;;16.73;2.38;;;9.30;86.20;;;;;;5026929;28;20083;-63
2021/10/02 04:59:20;;;;;;;6.85;2.10;;;9.30;86.40;;;;;;5025684;28;20049;-64
2021/10/02 05:01:47;;;;;;;7.50;2.22;;;9.30;86.30;;;;;;5025550;28;20049;-62
2021/10/02 05:04:14;;;;;;;12.18;3.00;;;9.30;86.20;;;;;;5026379;28;20131;-63
2021/10/02 05:06:41;;;;;;;6.28;2.05;;;9.40;86.20;;;;;;5025102;28;20538;-64
2021/10/02 05:09:08;;;;;;;10.18;2.03;;;9.30;86.20;;;;;;5026578;28;20045;-62
2021/10/02 05:11:34;;;;;;;14.20;1.83;;;9.40;85.90;;;;;;5025519;28;20085;-63
2021/10/02 05:14:01;;;;;;;9.63;1.77;;;9.40;85.50;;;;;;5026956;28;20484;-62
2021/10/02 05:16:28;;;;;;;10.52;2.00;;;9.40;85.00;;;;;;5026460;28;20050;-62
2021/10/02 05:18:55;;;;;;;6.13;1.77;;;9.40;84.90;;;;;;5025932;28;20046;-63
2021/10/02 05:21:21;;;;;;;11.80;1.92;;;9.40;84.60;;;;;;5026369;28;20372;-62
2021/10/02 05:23:48;;;;;;;8.63;1.77;;;9.40;84.30;;;;;;5026913;28;20123;-63
2021/10/02 05:26:15;;;;;;;4.15;1.73;;;9.50;83.90;;;;;;5028605;28;20041;-63
2021/10/02 05:28:42;;;;;;;16.13;2.38;;;9.50;83.90;;;;;;5027236;28;20077;-63
2021/10/02 05:31:09;;;;;;;13.25;1.70;;;9.50;83.40;;;;;;5030506;28;20049;-62
2021/10/02 05:33:36;;;;;;;6.00;1.30;;;9.60;83.40;;;;;;5030524;28;20060;-63
2021/10/02 05:36:03;;;;;;;8.38;1.80;;;9.60;83.40;;;;;;5030089;28;20049;-64
2021/10/02 05:38:30;;;;;;;5.25;1.73;;;9.60;83.50;;;;;;5030132;28;20131;-63
2021/10/02 05:40:57;;;;;;;8.43;1.35;;;9.60;83.40;;;;;;5030280;28;20561;-63
2021/10/02 05:43:23;;;;;;;3.28;1.23;;;9.60;83.40;;;;;;5030167;28;20203;-63
2021/10/02 05:45:50;;;;;;;5.93;1.50;;;9.60;83.50;;;;;;5029959;28;20097;-62
2021/10/02 05:48:17;;;;;;;5.07;1.10;;;9.60;83.40;;;;;;5029929;28;20041;-62
2021/10/02 05:50:45;;;;;;;9.18;1.45;;;9.70;84.00;;;;;;5029960;28;20079;-62
2021/10/02 05:53:12;;;;;;;11.45;1.23;;;9.60;83.80;;;;;;5029684;28;20046;-62
2021/10/02 05:55:39;;;;;;;7.40;1.95;;;9.70;83.90;;;;;;5030050;28;20136;-63
2021/10/02 05:58:05;;;;;;;7.78;1.50;;;9.70;84.20;;;;;;5029829;28;20573;-63
2021/10/02 06:00:32;;;;;;;2.40;1.00;;;9.70;84.20;;;;;;5030335;28;20049;-62
2021/10/02 06:03:01;;;;;;;13.45;2.20;;;9.80;84.50;;;;;;5029592;28;20084;-62
2021/10/02 06:05:28;;;;;;;12.00;2.00;;;9.80;84.50;;;;;;5019426;28;20049;-62
2021/10/02 06:07:55;;;;;;;8.90;1.30;;;9.90;84.50;;;;;;5029788;28;20644;-62
2021/10/02 06:10:22;;;;;;;9.77;1.80;;;10.00;84.50;;;;;;5029718;28;20046;-62
2021/10/02 06:12:52;;;;;;;5.55;1.85;;;10.00;84.60;;;;;;5029647;28;20057;-62
2021/10/02 06:15:20;;;;;;;4.88;1.30;;;10.00;84.60;;;;;;5026442;28;20369;-62
2021/10/02 06:17:47;;;;;;;10.18;3.00;;;10.10;84.90;;;;;;5028167;28;20073;-62
2021/10/02 06:20:14;;;;;;;5.45;1.15;;;10.20;84.70;;;;;;5029329;28;20045;-62
2021/10/02 06:22:41;;;;;;;12.90;1.63;;;10.20;84.60;;;;;;5029543;28;20156;-62
2021/10/02 06:25:09;;;;;;;10.13;1.30;;;10.30;84.80;;;;;;5029468;28;20424;-62
2021/10/02 06:27:37;;;;;;;6.25;1.73;;;10.30;84.80;;;;;;5029023;28;20076;-64
2021/10/02 06:30:05;;;;;;;5.68;1.27;;;10.40;85.10;;;;;;5028836;28;20049;-63
2021/10/02 06:32:32;;;;;;;8.45;1.63;;;10.50;85.40;;;;;;4679223;28;9999815;-64
2021/10/02 06:34:58;;;;;;;14.48;1.88;;;10.50;85.60;;;;;;5025954;28;20129;-62
2021/10/02 06:37:25;;;;;;;5.32;1.10;;;10.60;85.90;;;;;;5025139;28;20105;-63
2021/10/02 06:39:52;;;;;;;9.80;2.42;;;10.60;86.10;;;;;;5025870;28;20077;-62
2021/10/02 06:42:19;;;;;;;13.52;2.10;;;10.60;86.00;;;;;;5021063;28;20098;-62
2021/10/02 06:44:45;;;;;;;9.65;1.38;;;10.70;86.10;;;;;;5024417;28;20132;-62
2021/10/02 06:47:12;;;;;;;7.53;1.15;;;10.70;86.10;;;;;;5026137;28;20187;-62
2021/10/02 06:49:39;;;;;;;7.65;2.30;;;10.70;86.20;;;;;;5024575;28;20103;-62
2021/10/02 06:52:08;;;;;;;7.07;1.77;;;10.70;86.20;;;;;;5025221;28;20053;-63
2021/10/02 06:54:35;;;;;;;15.48;3.00;;;10.80;86.30;;;;;;5024008;28;20157;-61
2021/10/02 06:57:04;;;;;;;10.95;3.05;;;10.80;86.20;;;;;;5025490;28;20057;-63
2021/10/02 06:59:31;;;;;;;9.07;1.25;;;10.80;86.10;;;;;;5022711;28;20072;-62
2021/10/02 07:01:58;;;;;;;8.13;1.48;;;10.70;85.90;;;;;;5024221;28;20077;-63
2021/10/02 07:04:25;;;;;;;8.15;1.77;;;10.80;85.80;;;;;;5025225;28;20057;-63
2021/10/02 07:06:56;;;;;;;5.38;1.13;;;10.80;85.70;;;;;;5024779;28;20075;-63
2021/10/02 07:09:23;;;;;;;10.48;2.30;;;10.80;85.60;;;;;;5025275;28;20073;-62
2021/10/02 07:11:50;;;;;;;10.13;1.67;;;10.80;85.60;;;;;;5025298;28;20433;-62
2021/10/02 07:14:16;;;;;;;14.95;1.83;;;10.90;85.40;;;;;;5025576;28;20108;-63
2021/10/02 07:16:43;;;;;;;10.63;2.80;;;10.90;85.50;;;;;;5025628;28;20077;-63
2021/10/02 07:19:10;;;;;;;13.23;2.58;;;10.90;85.30;;;;;;5025663;28;20053;-63
2021/10/02 07:21:37;;;;;;;15.20;2.05;;;10.90;85.30;;;;;;5025190;28;20136;-63
2021/10/02 07:24:04;;;;;;;3.28;1.40;;;10.90;85.30;;;;;;5025330;28;20049;-62
2021/10/02 07:26:31;;;;;;;5.07;1.30;;;10.90;85.10;;;;;;5025363;28;20063;-63
2021/10/02 07:28:57;;;;;;;10.63;1.75;;;11.00;85.20;;;;;;5025564;28;20053;-62
2021/10/02 07:31:24;;;;;;;3.92;1.25;;;11.00;85.10;;;;;;5024918;28;20147;-63
2021/10/02 07:33:51;;;;;;;11.38;2.30;;;11.00;85.10;;;;;;5025104;28;20144;-63
2021/10/02 07:36:18;;;;;;;9.23;1.55;;;11.00;85.20;;;;;;5026339;28;20080;-64
2021/10/02 07:38:45;;;;;;;5.03;1.73;;;11.10;85.00;;;;;;5024329;28;20089;-62
2021/10/02 07:41:13;;;;;;;9.85;1.90;;;11.10;84.80;;;;;;5025079;28;20045;-64
2021/10/02 07:43:40;;;;;;;9.35;2.13;;;11.20;84.80;;;;;;5014488;28;20096;-64
2021/10/02 07:46:12;;;;;;;9.52;1.55;;;11.20;84.70;;;;;;5024915;28;20144;-63
2021/10/02 07:48:39;;;;;;;9.40;1.35;;;11.20;84.50;;;;;;5025308;28;20476;-62
2021/10/02 07:51:08;;;;;;;10.23;2.60;;;11.20;84.60;;;;;;5024791;28;20069;-62
2021/10/02 07:53:35;;;;;;;6.10;1.52;;;11.30;84.40;;;;;;5020234;28;20088;-62
2021/10/02 07:56:02;;;;;;;6.25;1.00;;;11.40;84.30;;;;;;5022181;28;20065;-62
2021/10/02 07:58:29;;;;;;;11.98;1.80;;;11.40;84.40;;;;;;5019251;28;20107;-61
2021/10/02 08:00:56;;;;;;;4.18;1.58;;;11.50;84.20;;;;;;5024805;28;20680;-59
2021/10/02 08:03:23;;;;;;;4.45;1.20;;;11.60;84.10;;;;;;5024642;28;20484;-59
2021/10/02 08:05:50;;;;;;;11.00;2.10;;;11.60;84.00;;;;;;5024598;28;20057;-59
2021/10/02 08:08:19;;;;;;;12.15;2.40;;;11.70;83.80;;;;;;5023509;28;20049;-59
2021/10/02 08:10:47;;;;;;;10.50;2.08;;;11.80;83.60;;;;;;5023934;28;20745;-60
2021/10/02 08:13:14;;;;;;;10.63;2.45;;;11.80;83.70;;;;;;5018245;28;20049;-59
2021/10/02 08:15:45;;;;;;;10.20;3.05;;;12.00;83.60;;;;;;5024501;28;20077;-59
2021/10/02 08:18:14;;;;;;;12.63;1.88;;;12.00;83.10;;;;;;5024527;28;20046;-59
2021/10/02 08:20:41;;;;;;;11.63;1.27;;;12.10;83.90;;;;;;5024102;28;20050;-59
2021/10/02 08:23:07;;;;;;;30.83;5.75;;;12.10;83.80;;;;;;5024433;28;20091;-60
2021/10/02 08:25:35;;;;;;;10.60;1.40;;;12.10;83.20;;;;;;5023334;28;20081;-60
2021/10/02 08:28:03;;;;;;;10.32;1.50;;;12.20;83.00;;;;;;5022851;28;20114;-60
2021/10/02 08:30:30;;;;;;;9.77;2.03;;;12.20;83.00;;;;;;5024526;28;20045;-61
2021/10/02 08:32:58;;;;;;;9.52;1.70;;;12.30;83.20;;;;;;5022733;28;20053;-60
2021/10/02 08:35:24;;;;;;;16.60;3.60;;;12.30;83.00;;;;;;5021230;28;20532;-60
2021/10/02 08:37:51;;;;;;;6.00;1.50;;;12.40;82.80;;;;;;5022008;28;20073;-61
2021/10/02 08:40:18;;;;;;;8.68;1.80;;;12.40;82.90;;;;;;5022162;28;20128;-60
2021/10/02 08:42:45;;;;;;;5.63;1.48;;;12.40;82.80;;;;;;5021307;28;20124;-60
2021/10/02 08:45:13;;;;;;;10.30;1.60;;;12.40;82.80;;;;;;5021850;28;20115;-61
2021/10/02 08:47:42;;;;;;;11.90;2.05;;;12.40;82.80;;;;;;5021935;28;20050;-61
2021/10/02 08:50:09;;;;;;;12.30;2.58;;;12.50;82.80;;;;;;5022795;28;20079;-60
2021/10/02 08:52:36;;;;;;;12.32;1.50;;;12.50;82.80;;;;;;5024071;28;20431;-60
2021/10/02 08:55:03;;;;;;;5.72;1.25;;;12.50;82.70;;;;;;5020912;28;20071;-60
2021/10/02 08:57:32;;;;;;;14.18;1.70;;;12.60;82.70;;;;;;5023338;28;20089;-60
2021/10/02 08:59:59;;;;;;;10.60;1.60;;;12.60;82.70;;;;;;5021625;28;20042;-60
2021/10/02 09:02:26;;;;;;;12.43;2.35;;;12.60;83.00;;;;;;5021632;28;20092;-60
2021/10/02 09:04:53;;;;;;;9.02;1.52;;;12.60;83.10;;;;;;5023309;28;20141;-66
2021/10/02 09:07:21;;;;;;;13.75;2.33;;;12.60;83.20;;;;;;5023964;28;20053;-61
2021/10/02 09:09:48;;;;;;;10.55;2.03;;;12.70;83.40;;;;;;5023350;28;20157;-60
2021/10/02 09:12:20;;;;;;;13.30;1.70;;;12.70;83.70;;;;;;5022351;28;20049;-60
2021/10/02 09:14:47;;;;;;;13.10;2.28;;;12.70;83.70;;;;;;5020978;28;20045;-61
2021/10/02 09:17:14;;;;;;;6.82;1.65;;;12.70;83.90;;;;;;5022475;28;20088;-61
2021/10/02 09:19:44;;;;;;;13.65;1.85;;;12.70;84.20;;;;;;5022155;28;20053;-61
2021/10/02 09:22:12;;;;;;;10.20;2.47;;;12.80;84.40;;;;;;5023051;28;20073;-61
2021/10/02 09:24:42;;;;;;;6.05;1.50;;;12.80;84.50;;;;;;5023708;28;20137;-60
2021/10/02 09:27:23;;;;;;;16.20;3.78;;;12.80;84.60;;;;;;5012793;28;20125;-60
2021/10/02 09:29:54;;;;;;;9.00;2.10;;;12.90;85.40;;;;;;5022528;28;20161;-62
2021/10/02 09:32:25;;;;;;;15.10;1.98;;;12.90;85.20;;;;;;5020739;28;20065;-61
2021/10/02 09:34:55;;;;;;;16.48;2.13;;;12.90;84.90;;;;;;5022938;28;20508;-61
2021/10/02 09:37:23;;;;;;;9.05;1.45;;;12.90;84.90;;;;;;5022992;28;20042;-60
2021/10/02 09:39:51;;;;;;;5.80;1.55;;;13.00;85.00;;;;;;5022989;28;20131;-61
2021/10/02 09:42:25;;;;;;;12.55;2.50;;;13.00;84.90;;;;;;5022640;28;20045;-61
2021/10/02 09:44:55;;;;;;;;;;;13.10;85.10;;;;;;5021184;28;20160;-60
2021/10/02 09:47:22;;;;;;;15.05;2.33;;;13.10;86.00;;;;;;5019909;28;19967;-59
2021/10/02 09:49:48;;;;;;;12.25;2.28;;;13.10;85.00;;;;;;5022791;28;20049;-60
2021/10/02 09:52:35;;;;;;;14.27;3.22;;;13.10;85.00;;;;;;5022186;28;20095;-60
2021/10/02 09:55:15;;;;;;;9.73;2.65;;;13.20;85.80;;;;;;5021382;28;20132;-61
2021/10/02 09:57:44;;;;;;;21.00;3.05;;;13.10;85.70;;;;;;5022516;28;20152;-60
2021/10/02 10:00:13;;;;;;;7.88;2.85;;;13.20;85.60;;;;;;5021863;28;20118;-61
2021/10/02 10:02:41;;;;;;;19.23;4.05;;;13.20;85.50;;;;;;5021773;28;20091;-61
2021/10/02 10:05:08;;;;;;;12.63;2.78;;;13.20;85.60;;;;;;5021910;28;20062;-60
2021/10/02 10:07:35;;;;;;;20.98;2.95;;;13.30;85.70;;;;;;5022519;28;20081;-61
2021/10/02 10:10:13;;;;;;;13.95;2.67;;;13.30;85.70;;;;;;5021278;28;20053;-61
2021/10/02 10:12:41;;;;;;;8.32;2.22;;;13.30;86.80;;;;;;5023448;28;20075;-60
2021/10/02 10:15:25;;;;;;;13.98;2.63;;;13.30;85.80;;;;;;5023357;28;20133;-60
2021/10/02 10:17:56;;;;;;;15.98;2.67;;;13.30;86.50;;;;;;5024725;28;20252;-62
2021/10/02 10:20:32;;;;;;;12.80;2.65;;;13.40;86.00;;;;;;5022867;28;20107;-61
2021/10/02 10:22:59;;;;;;;14.40;2.45;;;13.30;86.60;;;;;;5025612;28;20107;-60
2021/10/02 10:25:26;;;;;;;12.88;2.28;;;13.40;86.50;;;;;;5024699;28;20087;-60
2021/10/02 10:27:53;;;;;;;17.95;2.65;;;13.40;86.70;;;;;;5024586;28;20113;-61
2021/10/02 10:30:22;;;;;;;12.18;2.67;;;13.40;86.90;;;;;;5007614;28;20053;-61
2021/10/02 10:33:06;;;;;;;12.23;2.45;;;13.40;87.40;;;;;;5025068;28;20042;-61
2021/10/02 10:35:36;;;;;;;12.85;2.47;;;13.40;89.60;;;;;;5025676;28;20057;-61
2021/10/02 10:38:03;;;;;;;12.27;2.47;;;13.40;88.60;;;;;;5019760;28;20140;-60
2021/10/02 10:40:30;;;;;;;22.48;3.75;;;13.40;88.50;;;;;;5026329;28;20049;-62
2021/10/02 10:43:00;;;;;;;10.30;2.30;;;13.40;88.90;;;;;;5025882;28;20051;-62
2021/10/02 10:45:27;;;;;;;18.55;3.83;;;13.30;90.10;;;;;;5025623;28;20089;-63
2021/10/02 10:47:57;;;;;;;9.98;2.47;;;13.20;89.90;;;;;;5024222;28;20400;-63
2021/10/02 10:50:24;;;;;;;13.55;3.28;;;13.20;90.20;;;;;;5026019;28;20334;-61
2021/10/02 10:52:51;;;;;;;14.38;2.40;;;13.10;90.50;;;;;;5025662;28;20136;-60
2021/10/02 10:55:20;;;;;;;17.30;2.42;;;13.10;90.70;;;;;;5028555;28;20763;-62
2021/10/02 10:57:51;;;;;;;13.95;2.80;;;13.10;91.00;;;;;;5026925;28;20084;-62
2021/10/02 11:00:19;;;;;;;12.15;1.92;;;13.10;91.20;;;;;;5023701;28;20148;-62
2021/10/02 11:02:54;;;;;;;14.35;3.15;;;13.00;91.40;;;;;;5024651;28;20051;-62
2021/10/02 11:08:13;;;;;;;7.53;1.60;;;13.00;93.10;;;;;;5025509;28;20136;-62
2021/10/02 11:10:43;;;;;;;5.45;1.60;;;13.00;92.20;;;;;;5013950;28;20480;-61
2021/10/02 11:13:31;;;;;;;7.28;1.67;;;13.00;92.10;;;;;;5018249;28;20600;-62
2021/10/02 11:15:58;;;;;;;10.65;2.38;;;13.00;92.00;;;;;;5025110;28;20053;-62
2021/10/02 11:18:45;;;;;;;3.78;1.75;;;13.00;92.00;;;;;;5007178;28;20107;-61
2021/10/02 11:21:19;;;;;;;6.60;1.30;;;13.10;93.30;;;;;;5018010;28;20448;-62
2021/10/02 11:24:10;;;;;;;5.45;1.45;;;13.10;92.00;;;;;;5023375;28;20140;-61
2021/10/02 11:26:41;;;;;;;3.53;1.23;;;13.10;93.50;;;;;;5020979;28;20751;-63
2021/10/02 11:29:18;;;;;;;2.90;1.77;;;13.10;92.50;;;;;;5025462;28;20103;-62
2021/10/02 11:31:46;;;;;;;8.60;1.35;;;13.10;93.50;;;;;;5024681;28;20943;-63
2021/10/02 11:34:18;;;;;;;3.75;0.80;;;13.10;92.30;;;;;;5023075;28;20041;-61
2021/10/02 11:36:46;;;;;;;5.03;1.23;;;13.20;92.70;;;;;;5025115;28;20504;-62
2021/10/02 11:39:18;;;;;;;7.97;1.30;;;13.10;92.30;;;;;;5024023;28;20136;-62
2021/10/02 11:41:52;;;;;;;4.70;1.05;;;13.20;92.70;;;;;;5024545;28;20064;-63
2021/10/02 11:44:38;;;;;;;3.58;1.48;;;13.20;93.30;;;;;;5022308;28;20140;-63
2021/10/02 11:47:34;;;;;;;6.32;1.48;;;13.20;93.80;;;;;;5014977;28;20045;-63
2021/10/02 11:50:07;;;;;;;5.05;1.52;;;13.20;94.10;;;;;;5023387;28;20041;-63
2021/10/02 11:52:46;;;;;;;4.13;0.80;;;13.30;93.40;;;;;;5023435;28;20084;-63
2021/10/02 11:55:40;;;;;;;2.92;1.10;;;13.30;93.60;;;;;;5020917;28;20528;-63
2021/10/02 11:58:07;;;;;;;6.70;1.67;;;13.30;94.20;;;;;;5024092;28;20552;-63
2021/10/02 12:00:38;;;;;;;7.13;1.50;;;13.30;92.90;;;;;;5023251;28;20445;-62
2021/10/02 12:03:05;;;;;;;6.85;1.40;;;13.30;93.10;;;;;;5023489;28;20038;-62
2021/10/02 12:05:32;;;;;;;7.25;1.42;;;13.40;93.10;;;;;;5020908;28;20049;-62
2021/10/02 12:07:59;;;;;;;6.75;1.02;;;13.40;93.40;;;;;;5024298;28;20083;-61
2021/10/02 12:10:26;;;;;;;5.85;1.38;;;13.40;93.40;;;;;;5024015;28;20489;-62
2021/10/02 12:12:53;;;;;;;6.28;1.50;;;13.40;93.30;;;;;;5024321;28;20762;-65
2021/10/02 12:15:30;;;;;;;5.05;1.10;;;13.50;93.60;;;;;;5022958;28;20485;-63
2021/10/02 12:17:56;;;;;;;4.38;1.30;;;13.60;94.10;;;;;;5022575;28;20118;-63
2021/10/02 12:20:42;;;;;;;4.28;1.15;;;13.60;93.50;;;;;;5014776;28;20447;-62
2021/10/02 12:23:11;;;;;;;4.43;1.20;;;13.60;94.40;;;;;;5024254;28;20045;-62
2021/10/02 12:25:39;;;;;;;3.08;1.30;;;13.70;93.40;;;;;;5024301;28;20859;-62
2021/10/02 12:28:06;;;;;;;6.05;1.42;;;13.70;93.50;;;;;;5024283;28;20052;-61
2021/10/02 12:30:33;;;;;;;3.72;1.15;;;13.70;93.50;;;;;;5023787;28;20076;-61
2021/10/02 12:33:01;;;;;;;3.00;1.08;;;13.70;93.70;;;;;;5024171;28;20073;-62
2021/10/02 12:35:27;;;;;;;7.63;1.52;;;13.80;93.50;;;;;;5023786;28;20080;-63
2021/10/02 12:37:57;;;;;;;11.90;1.20;;;13.80;93.50;;;;;;5023912;28;20136;-63
2021/10/02 12:40:25;;;;;;;6.38;0.90;;;13.80;93.70;;;;;;5024448;28;20568;-62
2021/10/02 12:42:54;;;;;;;4.00;1.13;;;13.70;93.60;;;;;;5024272;28;20060;-63
2021/10/02 12:45:33;;;;;;;5.18;1.33;;;13.80;93.80;;;;;;5015621;28;20103;-63
2021/10/02 12:48:04;;;;;;;5.15;1.30;;;13.80;93.60;;;;;;5024517;28;20045;-62
2021/10/02 12:50:36;;;;;;;6.38;1.13;;;13.80;94.00;;;;;;5026619;28;20099;-63
2021/10/02 12:53:03;;;;;;;6.40;1.10;;;13.80;93.80;;;;;;5026869;28;20091;-62
2021/10/02 12:55:29;;;;;;;5.97;2.05;;;13.80;93.80;;;;;;5026012;28;20103;-62
2021/10/02 12:57:56;;;;;;;4.85;1.63;;;13.80;94.10;;;;;;5026974;28;20144;-64
2021/10/02 13:00:31;;;;;;;9.57;1.80;;;13.80;93.80;;;;;;5026395;28;20099;-64
2021/10/02 13:03:03;;;;;;;5.88;1.30;;;13.80;94.40;;;;;;5023210;28;20055;-63
2021/10/02 13:05:35;;;;;;;4.30;1.15;;;13.90;94.70;;;;;;5026887;28;20048;-63
2021/10/02 13:08:22;;;;;;;4.15;1.20;;;13.90;94.00;;;;;;5027098;28;20365;-63
2021/10/02 13:10:49;;;;;;;11.95;1.48;;;13.90;95.00;;;;;;5026599;28;20064;-63
2021/10/02 13:13:22;;;;;;;4.20;1.17;;;13.90;94.00;;;;;;5018379;28;20085;-62
2021/10/02 13:15:50;;;;;;;1.60;0.80;;;13.90;94.40;;;;;;5026403;28;20072;-63
2021/10/02 13:18:27;;;;;;;6.03;1.88;;;13.90;94.50;;;;;;5022112;28;20136;-65
2021/10/02 13:21:03;;;;;;;2.83;0.90;;;13.80;94.40;;;;;;5024155;28;20053;-64
2021/10/02 13:23:37;;;;;;;7.82;1.88;;;13.90;94.40;;;;;;5024421;28;20634;-64
2021/10/02 13:26:17;;;;;;;7.55;0.95;;;13.90;94.40;;;;;;5022640;28;20085;-65
2021/10/02 13:28:49;;;;;;;4.60;1.08;;;13.90;94.10;;;;;;5024110;28;20041;-63
2021/10/02 13:31:16;;;;;;;15.30;1.73;;;13.90;94.50;;;;;;5022208;28;20576;-64
2021/10/02 13:33:47;;;;;;;2.70;1.30;;;14.00;94.40;;;;;;5022244;28;20053;-62
2021/10/02 13:36:26;;;;;;;4.13;1.08;;;14.00;94.40;;;;;;5022794;28;20080;-62
2021/10/02 13:38:53;;;;;;;3.25;0.90;;;13.90;94.70;;;;;;5022388;28;20095;-63
2021/10/02 13:41:20;;;;;;;1.65;0.85;;;13.90;94.40;;;;;;5022790;28;20144;-63
2021/10/02 13:43:58;;;;;;;7.53;1.05;;;13.90;94.40;;;;;;5023914;28;20073;-63
2021/10/02 13:46:35;;;;;;;3.35;1.02;;;13.90;94.60;;;;;;5024585;28;20136;-63
2021/10/02 13:49:04;;;;;;;1.40;0.77;;;13.90;94.70;;;;;;5025382;28;20053;-64
2021/10/02 13:51:31;;;;;;;3.45;0.70;;;13.90;94.50;;;;;;5026565;28;20093;-63
2021/10/02 13:53:58;;;;;;;4.05;0.60;;;13.90;94.80;;;;;;5027464;28;20088;-63